Tilden, Pennsylvania
Current Conditions -  °F | °C
As of 8:54 PM on Wednesday 26 Nov 2014 (Local Time) from KRDG Reporting Station
Overcast Overcast  
Wind Chill: 28°   Ceiling: 4000
Heat Index: 35°   Visibility: 9mi
Dew Point: 31°   Wind: 9mph
Humidity: 85%   Direction: 310°NW
Pressure: 29.9"   Gusts: NA
Location:  40.5494°N, 75.999°W
Report Text: KRDG 270154Z 31008KT 9SM BKN040 OVC055 02/M01 A2990 RMK AO2 SNE52 SLP133 P0002 T00171006
Loading
Personal Weather Stations






























Interactive Weather Map New forecast layout! Learn more

10-Day Weather Forecast

Advertisements
Track Severe Weather on mobile